Time;durP1;ratioP1;P1;durP2;ratioP2;P2;SDS_P1;SDS_P2;PMS_P1;PMS_P2;Temp;Humidity;BMP_temperature;BMP_pressure;BME280_temperature;BME280_humidity;BME280_pressure;Samples;Min_cycle;Max_cycle;Signal;HPM_P1;HPM_P2
2022/03/22 00:01:04;;;;;;;10.82;4.95;;;;;;;3.93;62.36;102435.94;1758372;80;20915;-72
2022/03/22 00:03:31;;;;;;;14.05;5.92;;;;;;;3.91;62.30;102445.87;1758514;80;21132;-75
2022/03/22 00:05:59;;;;;;;17.45;5.10;;;;;;;3.88;62.29;102442.85;1758100;80;21559;-73
2022/03/22 00:08:26;;;;;;;16.20;6.03;;;;;;;3.88;62.39;102444.59;1750049;81;20905;-74
2022/03/22 00:10:55;;;;;;;10.78;4.65;;;;;;;3.85;62.34;102446.77;1745149;81;20893;-73
2022/03/22 00:13:23;;;;;;;10.93;5.42;;;;;;;3.84;62.31;102448.05;1745380;81;20896;-75
2022/03/22 00:15:51;;;;;;;12.37;4.65;;;;;;;3.81;62.34;102444.18;1745262;80;21641;-74
2022/03/22 00:18:22;;;;;;;10.93;4.25;;;;;;;3.81;62.38;102443.74;1745080;81;21442;-74
2022/03/22 00:20:51;;;;;;;10.38;4.53;;;;;;;3.79;62.40;102440.73;1744655;81;21367;-73
2022/03/22 00:23:21;;;;;;;10.60;4.90;;;;;;;3.78;62.45;102444.17;1744561;82;20897;-74
2022/03/22 00:25:49;;;;;;;14.40;5.30;;;;;;;3.74;62.40;102443.33;1744756;82;21483;-74
2022/03/22 00:28:16;;;;;;;7.58;4.80;;;;;;;3.72;62.48;102443.77;1744691;81;21347;-73
2022/03/22 00:30:43;;;;;;;10.03;4.70;;;;;;;3.70;62.46;102442.47;1744576;82;21383;-74
2022/03/22 00:33:10;;;;;;;11.12;5.05;;;;;;;3.69;62.44;102442.45;1744565;81;20929;-73
2022/03/22 00:35:39;;;;;;;14.33;5.67;;;;;;;3.68;62.47;102446.79;1744700;81;21394;-74
2022/03/22 00:38:13;;;;;;;12.90;5.92;;;;;;;3.65;62.52;102449.41;1744608;81;21387;-74
2022/03/22 00:40:40;;;;;;;13.28;6.08;;;;;;;3.62;62.55;102440.75;1744638;80;21128;-74
2022/03/22 00:43:08;;;;;;;10.88;5.58;;;;;;;3.60;62.50;102441.18;1744611;81;20928;-74
2022/03/22 00:45:35;;;;;;;10.63;5.75;;;;;;;3.56;62.58;102440.75;1744689;81;20834;-73
2022/03/22 00:48:08;;;;;;;12.65;6.22;;;;;;;3.53;62.46;102450.70;1744560;81;20937;-73
2022/03/22 00:50:38;;;;;;;12.35;5.28;;;;;;;3.50;62.52;102445.09;1744618;81;20892;-74
2022/03/22 00:53:07;;;;;;;15.53;5.20;;;;;;;3.47;62.70;102447.70;1744636;82;21243;-73
2022/03/22 00:55:35;;;;;;;7.83;4.60;;;;;;;3.46;62.82;102447.69;1744581;81;20917;-74
2022/03/22 00:58:03;;;;;;;15.50;5.12;;;;;;;3.44;62.96;102439.05;1744554;81;20900;-74
2022/03/22 01:00:30;;;;;;;19.20;7.20;;;;;;;3.42;63.06;102451.14;1744630;81;21015;-73
2022/03/22 01:02:59;;;;;;;12.93;5.28;;;;;;;3.41;63.12;102440.36;1744706;82;20845;-74
2022/03/22 01:05:27;;;;;;;15.10;6.25;;;;;;;3.41;63.00;102446.40;1744577;81;21132;-75
2022/03/22 01:07:58;;;;;;;15.03;5.12;;;;;;;3.40;62.79;102451.17;1744460;81;20924;-74
2022/03/22 01:10:27;;;;;;;15.15;5.30;;;;;;;3.37;62.65;102444.67;1744701;82;20881;-75
2022/03/22 01:12:54;;;;;;;9.45;5.12;;;;;;;3.36;62.65;102448.14;1744762;82;20932;-73
2022/03/22 01:15:26;;;;;;;10.75;5.53;;;;;;;3.32;62.36;102448.56;1744685;81;20984;-74
2022/03/22 01:17:54;;;;;;;12.60;5.05;;;;;;;3.25;62.31;102446.84;1744687;81;21548;-73
2022/03/22 01:20:25;;;;;;;11.63;5.17;;;;;;;3.17;62.17;102448.56;1744619;82;20928;-73
2022/03/22 01:22:52;;;;;;;10.40;6.08;;;;;;;3.07;62.05;102454.19;1745711;81;20980;-73
2022/03/22 01:25:25;;;;;;;11.48;5.42;;;;;;;2.93;62.04;102457.61;1744598;82;21394;-73
2022/03/22 01:27:52;;;;;;;13.72;5.90;;;;;;;2.80;62.50;102458.91;1744649;82;20881;-73
2022/03/22 01:30:20;;;;;;;10.53;6.20;;;;;;;2.67;62.98;102458.00;1744690;81;21120;-73
2022/03/22 01:32:50;;;;;;;12.73;6.50;;;;;;;2.56;63.40;102466.17;1744644;81;20896;-73
2022/03/22 01:35:18;;;;;;;26.25;9.70;;;;;;;2.49;63.75;102472.20;1744776;81;20885;-74
2022/03/22 01:37:48;;;;;;;21.93;9.48;;;;;;;2.46;64.02;102465.27;1744609;80;20921;-73
2022/03/22 01:40:17;;;;;;;16.48;7.50;;;;;;;2.44;64.08;102472.16;1744872;81;20862;-73
2022/03/22 01:42:44;;;;;;;11.90;6.45;;;;;;;2.41;64.08;102476.48;1744616;80;21284;-75
2022/03/22 01:45:11;;;;;;;15.60;6.90;;;;;;;2.39;63.97;102469.98;1745448;82;20944;-75
2022/03/22 01:47:40;;;;;;;8.23;5.03;;;;;;;2.36;63.91;102472.58;1745565;81;20987;-74
2022/03/22 01:50:11;;;;;;;10.82;5.78;;;;;;;2.31;63.70;102478.58;1746859;82;20909;-73
2022/03/22 01:52:40;;;;;;;15.85;7.90;;;;;;;2.21;63.45;102484.16;1746749;81;20869;-74
2022/03/22 01:55:08;;;;;;;15.75;7.83;;;;;;;2.06;63.75;102488.38;1744845;82;21160;-73
2022/03/22 01:57:35;;;;;;;13.53;7.53;;;;;;;1.92;64.26;102496.94;1744555;81;20893;-74
2022/03/22 02:00:09;;;;;;;20.05;10.05;;;;;;;1.81;64.78;102494.28;1744578;81;20900;-75
2022/03/22 02:08:11;;;;;;;26.12;11.33;;;;;;;1.68;65.71;102503.66;1744518;81;21134;-74
2022/03/22 02:10:39;;;;;;;26.80;11.97;;;;;;;1.69;65.85;102510.59;1744539;81;21509;-74
2022/03/22 02:13:06;;;;;;;24.77;12.10;;;;;;;1.71;65.97;102508.84;1744640;81;21414;-74
2022/03/22 02:15:33;;;;;;;26.10;11.43;;;;;;;1.71;66.06;102509.28;1744508;81;21417;-74
2022/03/22 02:18:00;;;;;;;26.48;11.95;;;;;;;1.72;66.00;102512.33;1744607;82;20949;-74
2022/03/22 02:20:28;;;;;;;37.80;16.07;;;;;;;1.71;65.97;102518.33;1744589;81;21527;-75
2022/03/22 02:23:08;;;;;;;31.33;14.85;;;;;;;1.72;66.02;102524.82;1744563;82;20936;-74
2022/03/22 02:25:35;;;;;;;19.25;9.73;;;;;;;1.72;65.89;102517.50;1744471;81;20927;-74
2022/03/22 02:28:04;;;;;;;26.52;12.40;;;;;;;1.72;65.79;102523.53;1744571;81;20968;-74
2022/03/22 02:30:30;;;;;;;19.70;9.65;;;;;;;1.72;65.70;102523.96;1744707;81;20937;-74
2022/03/22 02:33:00;;;;;;;16.50;7.87;;;;;;;1.72;65.49;102524.82;1744796;81;21828;-74
2022/03/22 02:35:29;;;;;;;20.10;11.53;;;;;;;1.71;65.23;102529.97;1744522;81;20897;-74
2022/03/22 02:37:56;;;;;;;19.20;10.80;;;;;;;1.68;65.15;102536.42;1744411;82;21521;-74
2022/03/22 02:40:25;;;;;;;25.12;13.30;;;;;;;1.61;65.29;102540.25;1744464;81;20988;-75
2022/03/22 02:42:54;;;;;;;27.37;13.00;;;;;;;1.56;65.49;102554.87;1734945;80;20941;-73
2022/03/22 02:45:22;;;;;;;25.95;13.35;;;;;;;1.49;65.83;102553.09;1744897;82;21307;-73
2022/03/22 02:47:49;;;;;;;21.77;12.43;;;;;;;1.45;66.11;102559.08;1744450;82;20976;-74
2022/03/22 02:50:17;;;;;;;27.67;12.85;;;;;;;1.42;66.44;102557.73;1744524;82;20936;-73
2022/03/22 02:52:45;;;;;;;22.48;11.25;;;;;;;1.43;66.63;102565.95;1744601;81;20893;-74
2022/03/22 02:55:12;;;;;;;26.30;12.00;;;;;;;1.44;66.78;102563.36;1744563;81;20956;-74
2022/03/22 02:57:40;;;;;;;23.32;11.97;;;;;;;1.46;66.50;102560.80;1744571;82;21908;-75
2022/03/22 03:00:09;;;;;;;21.68;12.30;;;;;;;1.45;66.31;102574.16;1744518;81;20906;-75
2022/03/22 03:02:46;;;;;;;16.67;10.63;;;;;;;1.47;66.47;102569.41;1744569;81;20889;-73
2022/03/22 03:05:13;;;;;;;19.32;10.15;;;;;;;1.49;66.34;102571.19;1743747;80;20917;-75
2022/03/22 03:07:40;;;;;;;28.10;12.23;;;;;;;1.51;66.12;102570.74;1744591;80;21463;-74
2022/03/22 03:10:07;;;;;;;34.00;13.55;;;;;;;1.51;66.29;102575.05;1756950;81;21885;-75
2022/03/22 03:12:35;;;;;;;30.50;13.60;;;;;;;1.46;66.51;102572.43;1757910;81;20873;-75
2022/03/22 03:15:04;;;;;;;30.00;12.80;;;;;;;1.44;66.50;102578.87;1757920;81;20908;-74
2022/03/22 03:17:33;;;;;;;32.67;13.40;;;;;;;1.44;66.18;102583.18;1757993;81;21512;-75
2022/03/22 03:20:00;;;;;;;28.75;13.20;;;;;;;1.40;65.86;102582.30;1757899;80;21018;-74
2022/03/22 03:22:28;;;;;;;21.45;11.25;;;;;;;1.39;66.12;102580.55;1757769;81;21484;-74
2022/03/22 03:24:54;;;;;;;27.25;11.88;;;;;;;1.40;66.06;102590.46;1758084;81;20869;-74
2022/03/22 03:27:22;;;;;;;25.10;13.70;;;;;;;1.43;65.86;102595.68;1758005;81;20987;-74
2022/03/22 03:29:50;;;;;;;23.10;12.58;;;;;;;1.40;65.78;102597.81;1758012;81;21394;-75
2022/03/22 03:32:17;;;;;;;27.42;11.68;;;;;;;1.38;65.76;102602.09;1758675;80;21544;-75
2022/03/22 03:34:45;;;;;;;27.00;13.18;;;;;;;1.37;65.71;102605.95;1757901;80;21125;-74
2022/03/22 03:37:12;;;;;;;25.55;12.53;;;;;;;1.35;65.67;102608.51;1757820;81;21409;-75
2022/03/22 03:39:40;;;;;;;20.82;12.03;;;;;;;1.31;65.58;102611.94;1758189;81;20837;-74
2022/03/22 03:42:07;;;;;;;23.55;12.33;;;;;;;1.27;65.45;102611.86;1758058;81;20904;-74
2022/03/22 03:47:25;;;;;;;24.37;10.80;;;;;;;1.20;65.49;102619.97;1758020;81;21463;-75
2022/03/22 03:49:57;;;;;;;19.52;10.25;;;;;;;1.19;65.62;102622.98;1757873;80;20872;-75
2022/03/22 03:52:30;;;;;;;22.87;12.28;;;;;;;1.22;65.74;102624.73;1757988;80;20837;-75
2022/03/22 03:54:58;;;;;;;21.42;10.58;;;;;;;1.23;65.70;102623.90;1758532;81;20897;-74
2022/03/22 03:57:25;;;;;;;23.35;10.55;;;;;;;1.27;65.76;102629.95;1758230;81;21434;-75
2022/03/22 03:59:54;;;;;;;23.75;9.98;;;;;;;1.27;65.88;102629.95;1758003;80;21155;-75
2022/03/22 04:02:21;;;;;;;21.23;11.90;;;;;;;1.28;65.89;102624.81;1758005;81;20916;-75
2022/03/22 04:04:51;;;;;;;23.22;10.90;;;;;;;1.27;65.91;102631.24;1758690;81;20920;-74
2022/03/22 04:07:21;;;;;;;25.30;12.68;;;;;;;1.23;65.81;102632.52;1758008;81;21485;-76
2022/03/22 04:09:48;;;;;;;22.42;10.58;;;;;;;1.22;65.93;102646.30;1748763;81;20865;-74
2022/03/22 04:12:15;;;;;;;24.12;11.15;;;;;;;1.22;65.75;102647.59;1744781;82;21343;-75
2022/03/22 04:14:43;;;;;;;15.25;10.88;;;;;;;1.21;65.81;102648.42;1744811;81;21055;-76
2022/03/22 04:17:11;;;;;;;25.30;12.10;;;;;;;1.25;65.74;102648.05;1744882;81;21430;-74
2022/03/22 04:19:38;;;;;;;19.73;12.98;;;;;;;1.27;65.55;102653.20;1744747;82;20934;-75
2022/03/22 04:22:08;;;;;;;32.05;13.98;;;;;;;1.29;65.59;102652.80;1744876;81;20933;-75
2022/03/22 04:24:35;;;;;;;25.85;12.43;;;;;;;1.27;65.83;102663.55;1745113;81;21220;-74
2022/03/22 04:32:42;;;;;;;27.65;13.53;;;;;;;1.51;66.46;102661.23;1744609;80;21015;-74
2022/03/22 04:35:17;;;;;;;25.15;13.25;;;;;;;1.66;66.10;102657.95;1744708;81;21426;-74
2022/03/22 04:37:47;;;;;;;32.88;14.53;;;;;;;1.81;65.82;102671.47;1744672;82;21143;-76
2022/03/22 04:40:17;;;;;;;32.73;13.35;;;;;;;2.00;65.54;102664.31;1744540;81;20964;-76
2022/03/22 04:42:47;;;;;;;29.27;12.60;;;;;;;2.22;65.26;102668.35;1744731;81;20916;-74
2022/03/22 04:45:14;;;;;;;22.73;12.58;;;;;;;2.52;65.07;102672.04;1744785;81;20975;-75
2022/03/22 04:47:45;;;;;;;25.12;13.50;;;;;;;2.85;64.55;102670.94;1745517;81;20917;-74
2022/03/22 04:50:10;;;;;;;27.17;13.18;;;;;;;3.24;63.97;102672.39;1745942;81;21254;-75
2022/03/22 04:58:08;;;;;;;26.70;15.78;;;;;;;4.24;61.81;102680.34;1745044;80;20932;-75
2022/03/22 05:00:38;;;;;;;28.15;14.83;;;;;;;4.67;60.96;102677.68;1745296;81;20932;-72
2022/03/22 05:03:08;;;;;;;26.85;15.55;;;;;;;5.19;60.28;102682.73;1745187;82;21152;-75
2022/03/22 05:08:23;;;;;;;27.07;14.70;;;;;;;6.46;57.58;102678.41;1746064;81;20949;-74
2022/03/22 05:10:51;;;;;;;28.95;13.80;;;;;;;7.15;56.16;102691.13;1757192;80;20991;-73
2022/03/22 05:13:17;;;;;;;34.90;17.40;;;;;;;7.78;54.80;102690.27;1758228;81;20931;-73
2022/03/22 05:15:47;;;;;;;26.40;14.93;;;;;;;8.41;53.13;102687.99;1758083;81;20943;-75
2022/03/22 05:18:16;;;;;;;26.30;15.63;;;;;;;9.01;51.79;102705.19;1758061;80;20888;-75
2022/03/22 05:20:43;;;;;;;26.25;15.15;;;;;;;9.49;50.27;102709.85;1758092;81;21442;-75
2022/03/22 05:23:09;;;;;;;16.23;9.63;;;;;;;9.98;49.48;102704.36;1758049;81;21018;-74
2022/03/22 05:25:37;;;;;;;15.68;8.58;;;;;;;10.47;48.14;102705.80;1758714;81;20888;-74
2022/03/22 05:28:04;;;;;;;13.38;6.85;;;;;;;10.89;46.91;102708.17;1758367;81;21120;-76
2022/03/22 05:30:32;;;;;;;15.83;7.05;;;;;;;11.15;45.58;102705.67;1757969;80;20967;-75
2022/03/22 05:33:00;;;;;;;11.40;6.08;;;;;;;11.24;45.02;102705.86;1758459;81;20912;-75
2022/03/22 05:35:28;;;;;;;16.27;6.95;;;;;;;11.35;44.44;102708.17;1757995;81;20912;-75
2022/03/22 05:37:55;;;;;;;18.67;7.15;;;;;;;11.43;44.39;102711.45;1758024;81;21038;-74
2022/03/22 05:40:23;;;;;;;12.18;6.62;;;;;;;11.69;43.56;102719.82;1757891;80;21418;-74
2022/03/22 05:42:51;;;;;;;17.15;6.47;;;;;;;11.91;43.07;102721.82;1757860;81;20979;-75
2022/03/22 05:45:18;;;;;;;14.75;6.10;;;;;;;12.13;42.46;102718.90;1757847;81;20916;-75
2022/03/22 05:47:45;;;;;;;12.10;6.80;;;;;;;12.34;41.52;102726.98;1757937;80;20888;-73
2022/03/22 05:50:12;;;;;;;16.73;6.42;;;;;;;12.59;41.28;102725.25;1757848;81;20967;-75
2022/03/22 05:52:49;;;;;;;14.33;6.05;;;;;;;12.93;40.67;102735.91;1757958;81;21110;-77
2022/03/22 05:55:16;;;;;;;11.55;5.87;;;;;;;13.29;39.25;102739.45;1757839;81;20932;-74
2022/03/22 05:57:43;;;;;;;17.00;6.53;;;;;;;13.46;39.02;102737.04;1757927;81;20991;-76
2022/03/22 06:00:11;;;;;;;11.63;5.97;;;;;;;13.61;38.30;102743.52;1757916;81;21022;-75
2022/03/22 06:02:39;;;;;;;18.35;7.05;;;;;;;13.80;38.21;102738.83;1758193;81;20921;-74
2022/03/22 06:05:11;;;;;;;13.72;6.05;;;;;;;14.13;38.16;102746.31;1758172;80;21187;-74
2022/03/22 06:07:39;;;;;;;17.37;8.18;;;;;;;14.47;37.44;102744.44;1758100;81;20927;-74
2022/03/22 06:10:08;;;;;;;17.17;5.90;;;;;;;14.73;36.67;102737.23;1751408;81;20976;-74
2022/03/22 06:12:48;;;;;;;13.15;5.47;;;;;;;14.99;36.22;102746.19;1744636;81;21018;-74
2022/03/22 06:15:28;;;;;;;13.93;4.70;;;;;;;15.23;35.47;102753.48;1744543;81;20909;-75
2022/03/22 06:18:02;;;;;;;11.90;5.60;;;;;;;15.50;34.75;102746.52;1744742;81;20881;-74
2022/03/22 06:20:33;;;;;;;12.70;4.42;;;;;;;15.72;33.77;102762.28;1744293;81;20916;-77
2022/03/22 06:23:02;;;;;;;9.43;4.00;;;;;;;15.69;33.56;102757.08;1744625;81;20991;-75
2022/03/22 06:25:29;;;;;;;8.68;4.75;;;;;;;15.69;33.16;102761.05;1744523;81;20948;-76
2022/03/22 06:27:58;;;;;;;12.33;4.80;;;;;;;15.64;33.24;102765.23;1744840;81;20857;-76
2022/03/22 06:30:25;;;;;;;17.90;4.83;;;;;;;15.63;33.54;102767.50;1744700;81;21144;-75
2022/03/22 06:32:55;;;;;;;11.45;4.72;;;;;;;15.81;33.39;102769.77;1744724;81;20944;-74
2022/03/22 06:35:24;;;;;;;12.05;4.40;;;;;;;16.01;33.10;102772.78;1744626;82;21398;-75
2022/03/22 06:37:51;;;;;;;10.15;4.53;;;;;;;16.21;32.85;102769.16;1744994;80;20979;-73
2022/03/22 06:40:20;;;;;;;10.28;4.67;;;;;;;16.43;32.46;102782.19;1744673;81;21121;-76
2022/03/22 06:42:48;;;;;;;11.78;4.97;;;;;;;16.67;31.74;102781.86;1744822;81;21217;-75
2022/03/22 06:45:15;;;;;;;11.20;4.58;;;;;;;16.78;31.53;102785.70;1744369;81;20881;-75
2022/03/22 06:47:43;;;;;;;8.18;4.53;;;;;;;16.88;31.76;102781.28;1744880;81;20920;-76
2022/03/22 06:50:12;;;;;;;15.18;5.17;;;;;;;17.15;31.08;102784.27;1744435;82;21562;-75
2022/03/22 06:52:40;;;;;;;13.00;4.35;;;;;;;17.34;30.84;102780.14;1744609;81;20995;-76
2022/03/22 06:55:08;;;;;;;12.37;4.60;;;;;;;17.51;30.34;102788.04;1744660;81;21102;-77
2022/03/22 06:57:36;;;;;;;11.25;5.53;;;;;;;17.63;30.17;102789.63;1744880;81;20853;-77
2022/03/22 07:00:08;;;;;;;14.80;4.78;;;;;;;17.81;29.75;102800.13;1745108;81;20976;-76
2022/03/22 07:02:42;;;;;;;10.38;5.45;;;;;;;18.02;29.58;102798.53;1744809;82;20909;-76
2022/03/22 07:05:10;;;;;;;15.25;5.33;;;;;;;18.21;29.66;102800.53;1745031;81;20884;-76
2022/03/22 07:07:37;;;;;;;11.10;4.80;;;;;;;18.50;28.79;102792.66;1745745;81;21217;-77
2022/03/22 07:10:05;;;;;;;15.35;4.87;;;;;;;18.69;28.67;102798.20;1749236;80;20967;-76
2022/03/22 07:12:34;;;;;;;10.85;4.70;;;;;;;18.90;27.98;102796.96;1759146;81;21571;-76
2022/03/22 07:15:03;;;;;;;11.40;4.50;;;;;;;19.11;27.84;102799.25;1758969;81;21019;-77
2022/03/22 07:17:32;;;;;;;11.25;4.25;;;;;;;19.34;27.13;102793.83;1758766;81;20955;-77
2022/03/22 07:20:00;;;;;;;11.57;4.42;;;;;;;19.39;26.63;102797.92;1758985;81;21859;-76
2022/03/22 07:22:27;;;;;;;10.80;3.50;;;;;;;19.31;26.02;102798.88;1758685;81;20869;-77
2022/03/22 07:24:56;;;;;;;9.98;4.20;;;;;;;19.05;26.14;102798.69;1758884;81;20880;-77
2022/03/22 07:27:26;;;;;;;12.63;4.67;;;;;;;18.98;25.91;102800.47;1759022;81;20901;-77
2022/03/22 07:29:53;;;;;;;11.15;4.03;;;;;;;19.02;26.16;102805.98;1758711;81;20904;-74
2022/03/22 07:32:20;;;;;;;12.35;4.72;;;;;;;19.07;25.94;102807.03;1760395;81;21105;-75
2022/03/22 07:34:47;;;;;;;7.97;4.17;;;;;;;19.03;26.17;102806.36;1759595;81;21311;-77
2022/03/22 07:37:14;;;;;;;12.20;3.85;;;;;;;19.12;26.19;102803.16;1758127;81;20983;-75
2022/03/22 07:39:41;;;;;;;11.90;4.17;;;;;;;19.30;25.55;102802.95;1758132;81;20954;-76
2022/03/22 07:42:09;;;;;;;8.95;3.98;;;;;;;19.46;25.30;102803.72;1758191;81;20916;-76
2022/03/22 07:44:39;;;;;;;6.65;3.30;;;;;;;19.70;25.23;102808.45;1758090;81;21132;-78
2022/03/22 07:47:06;;;;;;;7.30;3.47;;;;;;;20.06;25.13;102803.91;1758129;81;20928;-76
2022/03/22 07:55:06;;;;;;;7.45;3.05;;;;;;;21.03;23.35;102804.94;1758218;81;20943;-74
2022/03/22 07:57:33;;;;;;;8.93;2.55;;;;;;;21.05;23.07;102808.33;1758082;81;21222;-75
2022/03/22 08:00:01;;;;;;;9.18;3.27;;;;;;;21.05;22.74;102813.66;1757894;81;21015;-76
2022/03/22 08:02:28;;;;;;;6.40;3.27;;;;;;;20.86;22.60;102810.09;1757948;80;20912;-77
2022/03/22 08:04:55;;;;;;;7.97;3.20;;;;;;;20.56;23.13;102815.66;1758062;80;20856;-74
2022/03/22 08:07:22;;;;;;;7.35;3.00;;;;;;;20.50;23.13;102818.28;1758082;81;20963;-75
2022/03/22 08:09:50;;;;;;;6.62;2.67;;;;;;;20.62;22.94;102813.95;1758027;81;21563;-76
2022/03/22 08:12:18;;;;;;;5.00;2.30;;;;;;;20.66;22.89;102818.12;1758041;81;20877;-75
2022/03/22 08:14:46;;;;;;;6.87;2.80;;;;;;;20.58;22.68;102819.11;1758305;81;21394;-76
2022/03/22 08:17:13;;;;;;;7.28;2.58;;;;;;;20.27;22.87;102815.80;1758095;81;20884;-74
2022/03/22 08:19:42;;;;;;;8.05;2.92;;;;;;;20.24;23.18;102813.83;1758103;80;20987;-76
2022/03/22 08:22:10;;;;;;;8.33;3.05;;;;;;;20.32;22.92;102823.52;1757982;81;21906;-76
2022/03/22 08:24:36;;;;;;;8.20;3.85;;;;;;;20.39;23.00;102810.63;1757952;81;20884;-77
2022/03/22 08:27:07;;;;;;;6.62;2.92;;;;;;;20.55;22.90;102815.30;1758575;81;20877;-78
2022/03/22 08:29:35;;;;;;;8.63;2.87;;;;;;;20.74;22.86;102812.74;1758581;81;21483;-77
2022/03/22 08:32:05;;;;;;;6.00;2.55;;;;;;;20.88;22.91;102810.00;1758796;81;20944;-76
2022/03/22 08:34:34;;;;;;;6.90;2.65;;;;;;;21.01;22.20;102816.65;1759167;81;22270;-79
2022/03/22 08:37:03;;;;;;;7.80;3.10;;;;;;;20.90;22.34;102816.93;1759177;81;20978;-76
2022/03/22 08:39:29;;;;;;;10.72;2.17;;;;;;;21.01;22.46;102815.31;1759485;81;21385;-75
2022/03/22 08:41:57;;;;;;;8.95;2.42;;;;;;;21.10;22.15;102813.37;1758654;80;20939;-75
2022/03/22 08:44:23;;;;;;;4.90;2.52;;;;;;;21.13;22.21;102813.63;1758814;81;20940;-74
2022/03/22 08:46:51;;;;;;;11.08;2.90;;;;;;;21.14;21.88;102812.16;1758193;80;21123;-75
2022/03/22 08:49:18;;;;;;;4.67;2.42;;;;;;;21.06;21.69;102811.88;1758131;80;20972;-75
2022/03/22 08:51:46;;;;;;;4.72;2.30;;;;;;;20.98;22.04;102808.88;1757897;81;20943;-75
2022/03/22 08:54:14;;;;;;;11.68;2.75;;;;;;;20.95;21.61;102809.09;1757991;80;20917;-74
2022/03/22 08:56:42;;;;;;;5.92;2.30;;;;;;;20.76;21.89;102811.67;1758197;81;20915;-76
2022/03/22 08:59:09;;;;;;;7.22;2.27;;;;;;;20.77;22.13;102809.88;1758146;81;21117;-78
2022/03/22 09:01:36;;;;;;;6.25;2.15;;;;;;;21.15;21.73;102809.89;1757848;80;20944;-76
2022/03/22 09:06:49;;;;;;;5.40;2.08;;;;;;;21.38;20.52;102794.05;1757780;81;20896;-76
2022/03/22 09:09:16;;;;;;;15.68;2.47;;;;;;;21.31;19.99;102805.16;1757908;81;20916;-77
2022/03/22 09:11:43;;;;;;;8.00;2.65;;;;;;;21.24;20.15;102806.56;1748837;81;21201;-77
2022/03/22 09:14:10;;;;;;;3.45;1.87;;;;;;;21.14;20.33;102801.98;1744733;80;20867;-75
2022/03/22 09:16:39;;;;;;;8.15;1.60;;;;;;;21.17;19.75;102793.29;1744607;81;20932;-75
2022/03/22 09:19:06;;;;;;;5.22;1.82;;;;;;;21.07;19.87;102793.55;1744631;82;21390;-76
2022/03/22 09:21:33;;;;;;;8.25;2.47;;;;;;;20.96;19.74;102787.62;1744735;81;21550;-78
2022/03/22 09:24:03;;;;;;;6.12;1.70;;;;;;;20.74;20.23;102783.41;1744966;81;21248;-77
2022/03/22 09:26:29;;;;;;;4.92;1.67;;;;;;;20.71;20.21;102797.81;1744545;81;20846;-78
2022/03/22 09:28:58;;;;;;;2.85;1.30;;;;;;;20.85;19.92;102789.73;1744534;82;20924;-76
2022/03/22 09:31:25;;;;;;;6.40;1.75;;;;;;;20.80;20.09;102788.33;1744679;81;20940;-76
2022/03/22 09:33:54;;;;;;;2.08;1.37;;;;;;;20.60;20.37;102787.88;1745010;81;20900;-75
2022/03/22 09:36:22;;;;;;;4.55;1.52;;;;;;;20.52;20.56;102794.19;1745176;81;21626;-76
2022/03/22 09:38:49;;;;;;;4.12;1.20;;;;;;;20.65;20.40;102783.56;1744675;81;20917;-76
2022/03/22 09:41:17;;;;;;;7.33;1.98;;;;;;;20.92;19.63;102787.49;1744717;81;21129;-77
2022/03/22 09:43:48;;;;;;;4.67;2.08;;;;;;;20.96;19.42;102786.78;1744935;81;20928;-76
2022/03/22 09:46:20;;;;;;;5.30;1.72;;;;;;;21.07;19.29;102783.72;1734185;81;20881;-77
2022/03/22 09:48:48;;;;;;;3.47;1.45;;;;;;;21.29;18.79;102786.22;1744657;81;21963;-77
2022/03/22 09:54:03;;;;;;;7.12;1.50;;;;;;;21.66;18.75;102792.97;1744514;80;20995;-75
2022/03/22 09:56:30;;;;;;;8.10;1.25;;;;;;;21.58;18.96;102788.16;1744491;81;21398;-77
2022/03/22 09:59:00;;;;;;;4.60;1.07;;;;;;;21.53;18.83;102791.66;1744825;81;21003;-75
2022/03/22 10:01:27;;;;;;;6.08;1.65;;;;;;;21.56;18.46;102783.91;1744451;81;21039;-77
2022/03/22 10:04:03;;;;;;;6.50;1.95;;;;;;;21.54;18.07;102776.00;1744704;81;21370;-76
2022/03/22 10:06:32;;;;;;;7.53;1.35;;;;;;;21.47;18.11;102778.75;1744515;81;21007;-76
2022/03/22 10:08:59;;;;;;;5.35;2.85;;;;;;;21.65;17.60;102776.55;1745033;81;20913;-80
2022/03/22 10:11:39;;;;;;;3.58;0.93;;;;;;;21.70;17.27;102774.42;1750662;80;20868;-77
2022/03/22 10:14:09;;;;;;;6.15;1.90;;;;;;;21.65;17.21;102762.72;1758515;81;20880;-78
2022/03/22 10:16:51;;;;;;;13.65;1.82;;;;;;;21.71;17.12;102763.61;1758263;80;20900;-76
2022/03/22 10:19:24;;;;;;;3.80;2.02;;;;;;;21.76;17.08;102759.75;1742256;81;20881;-76
2022/03/22 10:21:53;;;;;;;4.92;2.25;;;;;;;21.63;17.14;102762.00;1758063;81;21019;-78
2022/03/22 10:24:21;;;;;;;7.92;3.58;;;;;;;21.57;17.03;102777.12;1757991;81;20987;-76
2022/03/22 10:26:50;;;;;;;6.67;3.17;;;;;;;21.33;16.71;102777.04;1758146;81;20872;-76
2022/03/22 10:29:18;;;;;;;5.42;2.45;;;;;;;20.99;17.07;102763.42;1758583;81;20904;-77
2022/03/22 10:31:46;;;;;;;7.85;2.40;;;;;;;21.00;17.17;102746.44;1759291;81;20939;-77
2022/03/22 10:34:15;;;;;;;9.15;2.42;;;;;;;21.04;17.43;102759.09;1759118;80;20896;-74
2022/03/22 10:36:43;;;;;;;4.40;1.75;;;;;;;21.03;17.53;102763.59;1758553;81;20928;-79
2022/03/22 10:39:12;;;;;;;5.40;1.45;;;;;;;21.15;17.30;102754.34;1757915;80;21212;-77
2022/03/22 10:41:44;;;;;;;5.60;1.70;;;;;;;21.05;17.34;102754.97;1757977;81;21023;-77
2022/03/22 10:44:15;;;;;;;1.98;1.35;;;;;;;21.03;17.48;102751.58;1757908;81;21337;-76
2022/03/22 10:46:43;;;;;;;8.08;1.47;;;;;;;21.15;17.25;102761.02;1757969;81;20943;-78
2022/03/22 10:49:18;;;;;;;5.60;1.32;;;;;;;21.02;17.51;102748.52;1758113;81;20923;-78
2022/03/22 10:51:52;;;;;;;5.47;1.42;;;;;;;20.88;17.66;102745.98;1758386;80;21354;-77
2022/03/22 10:54:20;;;;;;;3.12;0.93;;;;;;;20.77;17.84;102756.55;1758004;81;20922;-77
2022/03/22 10:56:55;;;;;;;6.12;1.40;;;;;;;20.56;18.29;102740.17;1757987;81;20888;-76
2022/03/22 10:59:27;;;;;;;3.50;1.62;;;;;;;20.35;18.33;102735.84;1757921;81;20935;-77
2022/03/22 11:01:56;;;;;;;5.65;1.85;;;;;;;20.20;18.59;102739.89;1757956;81;20979;-76
2022/03/22 11:04:23;;;;;;;6.53;1.55;;;;;;;20.22;18.65;102722.48;1757994;81;21867;-77
2022/03/22 11:06:50;;;;;;;5.78;1.30;;;;;;;20.41;18.88;102731.40;1758621;80;20896;-76
2022/03/22 11:09:24;;;;;;;2.95;1.75;;;;;;;20.55;18.79;102734.48;1758147;81;20907;-76
2022/03/22 11:11:50;;;;;;;6.40;1.45;;;;;;;20.53;18.92;102731.91;1758040;80;20948;-77
2022/03/22 11:14:19;;;;;;;3.12;1.32;;;;;;;20.62;19.17;102731.79;1758026;81;20881;-80
2022/03/22 11:16:47;;;;;;;4.15;1.17;;;;;;;20.57;19.10;102733.44;1757931;81;21810;-77
2022/03/22 11:19:17;;;;;;;3.17;1.15;;;;;;;20.23;18.97;102733.05;1757869;80;20881;-77
2022/03/22 11:21:47;;;;;;;2.67;1.20;;;;;;;19.96;19.54;102734.39;1758038;81;20928;-77
2022/03/22 11:25:38;;;;;;;3.98;1.50;;;;;;;19.92;19.68;102724.92;1799257;79;22696;-76
2022/03/22 11:28:10;;;;;;;6.22;1.05;;;;;;;19.96;19.46;102721.55;1758737;81;20916;-77
2022/03/22 11:30:40;;;;;;;5.45;1.32;;;;;;;19.90;19.66;102728.16;1758369;80;21355;-79
2022/03/22 11:36:00;;;;;;;5.78;0.98;;;;;;;19.42;20.08;102744.50;1758390;81;20907;-76
2022/03/22 11:38:54;;;;;;;3.45;1.00;;;;;;;18.98;20.59;102728.67;1758434;81;20983;-77
2022/03/22 11:44:31;;;;;;;2.72;0.93;;;;;;;18.56;21.07;102721.86;1758546;80;21998;-77
2022/03/22 11:47:16;;;;;;;3.80;1.30;;;;;;;18.53;21.39;102727.85;1738655;81;21019;-78
2022/03/22 11:50:05;;;;;;;5.92;1.67;;;;;;;18.49;21.27;102722.33;1758353;81;20997;-78
2022/03/22 11:52:41;;;;;;;5.17;1.45;;;;;;;18.33;21.09;102722.40;1758431;81;20947;-78
2022/03/22 11:55:23;;;;;;;3.52;1.25;;;;;;;18.13;21.75;102711.62;1758546;81;20983;-78
2022/03/22 11:57:53;;;;;;;2.10;1.45;;;;;;;18.16;21.90;102710.09;1758288;80;21175;-76
2022/03/22 12:00:46;;;;;;;4.78;1.47;;;;;;;18.14;21.37;102714.64;1756908;80;20928;-75
2022/03/22 12:03:14;;;;;;;1.72;0.80;;;;;;;18.02;21.40;102717.55;1757769;81;20920;-77
2022/03/22 12:05:41;;;;;;;5.47;1.50;;;;;;;17.93;21.43;102714.95;1758338;80;21371;-75
2022/03/22 12:08:15;;;;;;;3.87;1.20;;;;;;;17.86;22.02;102714.08;1758337;81;20939;-77
2022/03/22 12:10:50;;;;;;;4.20;0.85;;;;;;;17.88;21.38;102708.22;1758409;81;20892;-77